Time;durP1;ratioP1;P1;durP2;ratioP2;P2;SDS_P1;SDS_P2;PMS_P1;PMS_P2;Temp;Humidity;BMP_temperature;BMP_pressure;BME280_temperature;BME280_humidity;BME280_pressure;Samples;Min_cycle;Max_cycle;Signal;HPM_P1;HPM_P2
2023/08/10 00:00:18;;;;;;;4.15;1.92;;;;;;;17.73;81.95;100342.84;6156800;23;20013;-83
2023/08/10 00:02:45;;;;;;;1.98;1.55;;;;;;;17.74;81.76;100344.50;6131776;23;20025;-83
2023/08/10 00:05:12;;;;;;;2.92;1.50;;;;;;;17.73;81.39;100344.66;6131704;23;22417;-82
2023/08/10 00:07:39;;;;;;;3.72;1.95;;;;;;;17.73;81.37;100344.66;6132702;23;20017;-82
2023/08/10 00:10:08;;;;;;;10.00;2.88;;;;;;;17.67;81.19;100338.13;6180690;23;20429;-82
2023/08/10 00:12:36;;;;;;;4.22;1.85;;;;;;;17.69;81.89;100344.19;6181624;23;20039;-82
2023/08/10 00:15:05;;;;;;;6.18;1.90;;;;;;;17.70;80.79;100342.34;6156581;23;20493;-82
2023/08/10 00:17:32;;;;;;;2.85;1.75;;;;;;;17.67;80.99;100337.31;6156827;23;20028;-82
2023/08/10 00:19:59;;;;;;;3.92;1.90;;;;;;;17.66;81.07;100341.84;6180621;23;20029;-82
2023/08/10 00:22:26;;;;;;;2.28;1.83;;;;;;;17.61;81.51;100332.63;6131167;23;20034;-83
2023/08/10 00:24:53;;;;;;;3.85;1.73;;;;;;;17.63;80.95;100334.13;6156703;23;20384;-82
2023/08/10 00:27:19;;;;;;;2.67;1.70;;;;;;;17.57;81.15;100334.78;6156667;23;20020;-82
2023/08/10 00:29:46;;;;;;;6.03;1.70;;;;;;;17.57;80.72;100330.25;6132411;23;20090;-85
2023/08/10 00:32:14;;;;;;;3.08;1.67;;;;;;;17.57;80.42;100326.72;6156584;23;20445;-82
2023/08/10 00:34:42;;;;;;;6.60;2.10;;;;;;;17.55;80.67;100323.38;6181496;23;20068;-82
2023/08/10 00:37:09;;;;;;;3.45;1.73;;;;;;;17.53;80.71;100325.41;6180444;23;20027;-83
2023/08/10 00:39:35;;;;;;;4.15;2.22;;;;;;;17.50;81.44;100323.91;6181389;23;20389;-82
2023/08/10 00:42:02;;;;;;;3.70;2.60;;;;;;;17.50;81.46;100323.03;6155910;23;20392;-82
2023/08/10 00:44:30;;;;;;;5.13;2.40;;;;;;;17.49;81.29;100332.13;6206330;23;20507;-83
2023/08/10 00:46:56;;;;;;;5.57;2.53;;;;;;;17.47;81.47;100337.63;6181201;23;20548;-82
2023/08/10 00:49:23;;;;;;;3.22;2.13;;;;;;;17.45;81.22;100333.44;6156237;23;20383;-81
2023/08/10 00:51:50;;;;;;;4.93;2.63;;;;;;;17.47;81.37;100339.50;6181401;23;20440;-82
2023/08/10 00:54:17;;;;;;;6.90;3.13;;;;;;;17.44;81.13;100340.66;6156362;23;20095;-82
2023/08/10 00:56:43;;;;;;;5.80;2.45;;;;;;;17.41;81.40;100338.31;6180748;23;20055;-82
2023/08/10 00:59:10;;;;;;;7.57;2.50;;;;;;;17.42;81.04;100349.91;6156403;23;20104;-82
2023/08/10 01:01:37;;;;;;;10.50;2.30;;;;;;;17.39;81.08;100350.25;6180898;23;20021;-82
2023/08/10 01:04:04;;;;;;;6.13;2.40;;;;;;;17.34;81.36;100350.72;6131432;23;20024;-82
2023/08/10 01:06:47;;;;;;;5.80;1.98;;;;;;;17.24;79.65;100345.53;6205538;23;20039;-82
2023/08/10 01:09:16;;;;;;;6.95;2.03;;;;;;;17.30;80.48;100344.88;6180780;23;20408;-82
2023/08/10 01:11:59;;;;;;;4.75;2.58;;;;;;;17.19;80.59;100339.81;6181502;23;20024;-81
2023/08/10 01:14:34;;;;;;;5.72;2.33;;;;;;;17.20;79.95;100333.47;6181058;23;20043;-82
2023/08/10 01:17:03;;;;;;;2.95;1.95;;;;;;;17.23;79.92;100338.50;6180939;23;20060;-82
2023/08/10 01:19:38;;;;;;;4.18;2.17;;;;;;;17.23;79.40;100341.16;6181050;23;20429;-82
2023/08/10 01:22:13;;;;;;;5.50;2.30;;;;;;;17.24;79.47;100342.84;6156191;23;20098;-82
2023/08/10 01:24:42;;;;;;;6.05;2.38;;;;;;;17.25;79.59;100341.00;6155009;23;20023;-81
2023/08/10 01:27:13;;;;;;;4.07;2.13;;;;;;;17.19;79.62;100338.97;6180762;23;20429;-82
2023/08/10 01:29:40;;;;;;;3.05;1.80;;;;;;;17.21;79.24;100342.34;6180177;23;20074;-82
2023/08/10 01:32:14;;;;;;;7.63;1.90;;;;;;;17.15;78.79;100343.84;6180400;23;20356;-82
2023/08/10 01:34:41;;;;;;;4.93;2.08;;;;;;;17.18;79.01;100348.88;6156438;23;20016;-83
2023/08/10 01:37:08;;;;;;;4.18;1.90;;;;;;;17.17;78.70;100357.09;6180868;23;20037;-82
2023/08/10 01:39:35;;;;;;;6.85;2.03;;;;;;;17.12;78.54;100352.22;6155699;23;20095;-82
2023/08/10 01:42:02;;;;;;;5.93;2.05;;;;;;;17.09;78.49;100342.66;6131084;23;20048;-82
2023/08/10 01:44:29;;;;;;;8.38;2.05;;;;;;;17.08;78.19;100342.84;6181304;23;20023;-82
2023/08/10 01:47:00;;;;;;;4.60;2.13;;;;;;;17.01;77.46;100344.50;6130752;23;20024;-82
2023/08/10 01:49:29;;;;;;;6.63;2.20;;;;;;;16.99;77.30;100343.81;6204817;23;20430;-82
2023/08/10 01:51:57;;;;;;;4.82;2.33;;;;;;;17.00;77.92;100359.75;6154708;23;20460;-81
2023/08/10 01:54:25;;;;;;;6.30;2.60;;;;;;;17.02;78.20;100363.13;6204401;23;20044;-82
2023/08/10 01:56:52;;;;;;;2.42;1.92;;;;;;;16.92;77.59;100354.38;6179929;23;20013;-82
2023/08/10 01:59:19;;;;;;;3.40;1.90;;;;;;;16.91;77.61;100356.19;6155497;23;20048;-82
2023/08/10 02:01:46;;;;;;;4.50;2.05;;;;;;;16.92;77.48;100363.25;6155030;23;20021;-82
2023/08/10 02:04:12;;;;;;;7.15;1.90;;;;;;;16.90;77.48;100354.53;6156104;23;20031;-82
2023/08/10 02:06:40;;;;;;;5.43;1.92;;;;;;;16.90;77.58;100356.38;6181038;23;20021;-82
2023/08/10 02:09:07;;;;;;;6.10;2.13;;;;;;;16.89;77.32;100366.28;6180029;23;20024;-82
2023/08/10 02:11:34;;;;;;;6.13;1.90;;;;;;;16.85;77.47;100362.22;6208218;23;20091;-82
2023/08/10 02:14:01;;;;;;;8.52;2.13;;;;;;;16.83;77.21;100368.75;6155502;23;20056;-82
2023/08/10 02:16:27;;;;;;;4.15;2.00;;;;;;;16.82;77.27;100369.78;6155250;23;20441;-83
2023/08/10 02:18:54;;;;;;;4.63;2.08;;;;;;;16.81;77.25;100368.06;6155585;23;20095;-82
2023/08/10 02:21:23;;;;;;;2.75;1.90;;;;;;;16.80;77.16;100377.97;6155650;23;20024;-82
2023/08/10 02:23:50;;;;;;;2.53;1.90;;;;;;;16.78;77.17;100371.94;6156288;23;20024;-82
2023/08/10 02:26:17;;;;;;;3.13;1.88;;;;;;;16.77;77.04;100375.59;6156035;23;20432;-82
2023/08/10 02:28:44;;;;;;;7.38;2.03;;;;;;;16.75;76.91;100366.88;6131297;23;20460;-82
2023/08/10 02:31:11;;;;;;;4.78;2.08;;;;;;;16.79;77.10;100378.13;6131001;23;20038;-83
2023/08/10 02:33:38;;;;;;;8.45;2.40;;;;;;;16.77;76.65;100369.41;6131541;23;20396;-82
2023/08/10 02:36:07;;;;;;;2.92;1.75;;;;;;;16.75;76.77;100363.34;6155584;23;20096;-82
2023/08/10 02:38:34;;;;;;;4.53;2.15;;;;;;;16.71;76.76;100361.00;6155962;23;20041;-82
2023/08/10 02:41:01;;;;;;;6.45;2.28;;;;;;;16.70;77.36;100359.31;6155829;23;20094;-82
2023/08/10 02:43:28;;;;;;;6.18;2.33;;;;;;;16.67;77.57;100351.59;6155680;23;20040;-82
2023/08/10 02:45:55;;;;;;;6.13;3.03;;;;;;;16.66;77.39;100363.34;6179720;23;20044;-82
2023/08/10 02:48:22;;;;;;;6.10;2.50;;;;;;;16.66;77.37;100357.97;6155869;23;20501;-82
2023/08/10 02:50:49;;;;;;;6.57;2.40;;;;;;;16.68;77.21;100349.75;6155377;23;20398;-82
2023/08/10 02:53:16;;;;;;;2.60;2.13;;;;;;;16.64;77.33;100353.78;6204422;23;20028;-83
2023/08/10 02:55:43;;;;;;;6.40;2.25;;;;;;;16.67;77.27;100362.31;6180899;23;20075;-82
2023/08/10 02:58:10;;;;;;;3.97;2.03;;;;;;;16.64;77.51;100368.00;6180403;23;20353;-82
2023/08/10 03:00:37;;;;;;;6.03;2.63;;;;;;;16.66;77.58;100370.50;6155605;23;20028;-83
2023/08/10 03:03:04;;;;;;;6.90;2.50;;;;;;;16.62;77.18;100372.69;6155195;23;20074;-82
2023/08/10 03:05:31;;;;;;;6.75;2.58;;;;;;;16.59;77.07;100369.47;6177317;23;20361;-82
2023/08/10 03:07:58;;;;;;;4.68;2.05;;;;;;;16.58;76.96;100365.13;6129785;23;20471;-82
2023/08/10 03:10:24;;;;;;;2.60;2.28;;;;;;;16.57;77.18;100363.47;6155730;23;20678;-82
2023/08/10 03:12:51;;;;;;;8.95;2.70;;;;;;;16.55;77.19;100374.31;6179752;23;20027;-82
2023/08/10 03:15:18;;;;;;;4.95;1.65;;;;;;;16.53;76.42;100370.13;6130824;23;20029;-82
2023/08/10 03:17:45;;;;;;;3.03;2.13;;;;;;;16.46;75.68;100378.81;6155408;23;20028;-81
2023/08/10 03:20:16;;;;;;;2.83;1.90;;;;;;;16.43;75.73;100383.66;6130762;23;20090;-82
2023/08/10 03:22:45;;;;;;;2.78;2.03;;;;;;;16.42;75.65;100374.78;6181658;23;20021;-82
2023/08/10 03:25:12;;;;;;;3.70;2.17;;;;;;;16.42;76.03;100374.78;6153967;23;20326;-82
2023/08/10 03:27:39;;;;;;;3.20;2.20;;;;;;;16.39;76.21;100377.78;6181050;23;20013;-82
2023/08/10 03:30:10;;;;;;;7.43;2.95;;;;;;;16.40;76.27;100373.25;6156118;23;20044;-82
2023/08/10 03:32:37;;;;;;;4.97;2.50;;;;;;;16.40;76.26;100368.72;6155445;23;20021;-82
2023/08/10 03:35:05;;;;;;;5.22;2.65;;;;;;;16.40;76.47;100368.72;6129759;23;20376;-82
2023/08/10 03:37:32;;;;;;;4.65;2.38;;;;;;;16.40;76.34;100363.38;6156442;23;20090;-82
2023/08/10 03:39:58;;;;;;;4.18;2.00;;;;;;;16.38;76.20;100361.84;6154896;23;20024;-82
2023/08/10 03:42:25;;;;;;;5.97;2.20;;;;;;;16.39;76.09;100368.91;6204302;23;20047;-82
2023/08/10 03:44:55;;;;;;;8.10;2.92;;;;;;;16.39;75.77;100371.59;6154927;23;20016;-82
2023/08/10 03:47:22;;;;;;;4.05;2.15;;;;;;;16.39;75.51;100375.09;6156052;23;20025;-82
2023/08/10 03:49:49;;;;;;;5.57;2.28;;;;;;;16.33;75.77;100372.22;6155889;23;20024;-82
2023/08/10 03:52:16;;;;;;;10.73;2.40;;;;;;;16.30;76.40;100388.63;6130844;23;20016;-83
2023/08/10 03:54:43;;;;;;;10.48;2.38;;;;;;;16.27;76.69;100385.25;6131824;23;20068;-82
2023/08/10 03:57:09;;;;;;;6.18;2.60;;;;;;;16.28;77.06;100386.94;6154987;23;20445;-82
2023/08/10 03:59:37;;;;;;;5.32;2.60;;;;;;;16.24;76.84;100396.28;6130432;23;20032;-81
2023/08/10 04:02:04;;;;;;;7.22;2.30;;;;;;;16.23;77.12;100394.63;6202435;23;20026;-86
2023/08/10 04:04:31;;;;;;;3.45;2.00;;;;;;;16.25;76.80;100399.81;6202011;23;20130;-86
2023/08/10 04:06:57;;;;;;;5.57;2.25;;;;;;;16.22;77.06;100395.59;6152012;23;20033;-85
2023/08/10 04:09:24;;;;;;;8.30;2.53;;;;;;;16.21;76.71;100391.25;6127939;23;20025;-86
2023/08/10 04:11:51;;;;;;;3.13;2.00;;;;;;;16.18;76.04;100396.06;6152944;23;20036;-86
2023/08/10 04:14:18;;;;;;;6.15;2.17;;;;;;;16.18;75.89;100396.06;6178042;23;20020;-86
2023/08/10 04:16:45;;;;;;;3.28;1.83;;;;;;;16.18;75.62;100396.06;6127641;23;20075;-86
2023/08/10 04:19:12;;;;;;;5.05;2.00;;;;;;;16.11;74.77;100401.25;6128028;23;20139;-86
2023/08/10 04:21:39;;;;;;;5.32;1.77;;;;;;;16.15;74.64;100388.34;6177814;23;20445;-85
2023/08/10 04:24:06;;;;;;;5.05;2.03;;;;;;;16.09;74.29;100394.38;6128475;23;20099;-86
2023/08/10 04:26:32;;;;;;;6.97;1.90;;;;;;;16.07;74.22;100402.53;6176472;23;20100;-85
2023/08/10 04:29:00;;;;;;;8.93;2.08;;;;;;;16.08;73.77;100409.59;6153345;23;20091;-85
2023/08/10 04:31:27;;;;;;;6.05;1.98;;;;;;;16.06;74.10;100408.91;6152221;23;20048;-85
2023/08/10 04:33:54;;;;;;;2.58;2.00;;;;;;;16.04;73.94;100408.22;6151661;23;20100;-85
2023/08/10 04:36:21;;;;;;;5.22;2.40;;;;;;;16.04;73.50;100408.22;6129002;23;20079;-86
2023/08/10 04:38:48;;;;;;;4.07;1.63;;;;;;;16.00;73.65;100412.19;6154097;23;20024;-85
2023/08/10 04:41:15;;;;;;;9.18;1.73;;;;;;;16.02;73.74;100410.22;6178086;23;20024;-85
2023/08/10 04:43:42;;;;;;;3.55;1.80;;;;;;;15.98;73.85;100412.38;6129500;23;20025;-85
2023/08/10 04:46:09;;;;;;;5.25;2.13;;;;;;;15.98;73.43;100412.38;6178351;23;20027;-86
2023/08/10 04:48:36;;;;;;;7.80;2.30;;;;;;;15.98;73.34;100414.22;6154913;23;20115;-85
2023/08/10 04:51:04;;;;;;;4.32;1.30;;;;;;;15.95;73.34;100417.19;6154083;23;20478;-85
2023/08/10 04:53:30;;;;;;;4.75;1.80;;;;;;;15.94;73.66;100419.03;6178185;23;20020;-85
2023/08/10 04:55:57;;;;;;;4.80;1.70;;;;;;;15.93;73.93;100413.84;6178775;23;20337;-85
2023/08/10 04:58:24;;;;;;;7.35;1.80;;;;;;;15.92;73.85;100415.66;6155049;23;20016;-85
2023/08/10 05:00:52;;;;;;;6.30;2.10;;;;;;;15.94;73.62;100423.56;6128724;23;20031;-85
2023/08/10 05:03:22;;;;;;;3.38;1.85;;;;;;;15.94;73.97;100420.88;6153185;23;20436;-85
2023/08/10 05:05:51;;;;;;;5.18;1.90;;;;;;;15.92;73.79;100414.81;6178059;23;20016;-85
2023/08/10 05:08:18;;;;;;;3.20;2.10;;;;;;;15.95;73.22;100419.88;6154504;23;20044;-85
2023/08/10 05:10:45;;;;;;;4.78;1.77;;;;;;;15.93;73.22;100425.41;6203246;23;20070;-85
2023/08/10 05:13:12;;;;;;;6.28;1.67;;;;;;;15.92;73.42;100415.66;6128514;23;20027;-86
2023/08/10 05:15:39;;;;;;;3.95;2.35;;;;;;;15.92;73.25;100422.84;6179106;23;20083;-86
2023/08/10 05:18:05;;;;;;;6.10;2.00;;;;;;;15.91;73.54;100424.69;6154057;23;20100;-85
2023/08/10 05:20:33;;;;;;;5.85;1.80;;;;;;;15.90;73.49;100425.72;6154265;23;20106;-86
2023/08/10 05:22:59;;;;;;;4.20;2.10;;;;;;;15.93;73.65;100420.03;6177821;23;20044;-86
2023/08/10 05:25:26;;;;;;;6.07;1.75;;;;;;;15.96;73.48;100427.75;6203469;23;20022;-85
2023/08/10 05:27:53;;;;;;;6.95;2.10;;;;;;;15.99;73.88;100429.28;6179054;23;20024;-85
2023/08/10 05:30:20;;;;;;;5.80;1.98;;;;;;;16.05;73.96;100436.69;6179330;23;20017;-85
2023/08/10 05:32:47;;;;;;;4.25;1.92;;;;;;;16.11;74.04;100445.94;6201948;23;20475;-85
2023/08/10 05:35:14;;;;;;;3.85;2.30;;;;;;;16.06;74.42;100449.94;6203784;23;20045;-85
2023/08/10 05:37:41;;;;;;;2.90;2.10;;;;;;;16.04;74.17;100451.91;6178882;23;20029;-85
2023/08/10 05:40:11;;;;;;;9.27;2.33;;;;;;;16.05;73.94;100447.38;6127370;23;20024;-85
2023/08/10 05:42:42;;;;;;;6.10;2.40;;;;;;;16.04;73.90;100446.56;6203270;23;20048;-86
2023/08/10 05:45:14;;;;;;;8.70;2.33;;;;;;;16.05;74.00;100447.38;6202794;23;20078;-85
2023/08/10 05:47:42;;;;;;;2.65;2.08;;;;;;;16.06;74.40;100444.56;6179195;23;20044;-86
2023/08/10 05:50:09;;;;;;;7.82;2.42;;;;;;;16.10;74.81;100445.09;6127358;23;20017;-85
2023/08/10 05:52:37;;;;;;;5.15;2.20;;;;;;;16.06;74.71;100447.25;6178400;23;20043;-86
2023/08/10 05:55:04;;;;;;;5.32;2.55;;;;;;;16.11;74.71;100451.31;6203318;23;20028;-86
2023/08/10 05:57:31;;;;;;;6.93;3.10;;;;;;;16.08;75.03;100448.91;6154032;23;20100;-87
2023/08/10 05:59:58;;;;;;;3.33;2.63;;;;;;;16.13;75.50;100449.28;6177424;23;20025;-87
2023/08/10 06:02:25;;;;;;;2.65;2.17;;;;;;;16.16;75.62;100444.47;6178237;23;20165;-86
2023/08/10 06:04:52;;;;;;;5.63;2.70;;;;;;;16.16;75.50;100449.00;6175249;23;20134;-86
2023/08/10 06:07:19;;;;;;;4.30;3.05;;;;;;;16.19;75.70;100457.56;6177677;23;20791;-86
2023/08/10 06:09:46;;;;;;;5.35;2.80;;;;;;;16.20;75.65;100445.81;6200519;23;20076;-86
2023/08/10 06:12:12;;;;;;;4.47;2.67;;;;;;;16.21;75.66;100442.16;6151165;23;20066;-86
2023/08/10 06:14:39;;;;;;;6.50;2.53;;;;;;;16.27;75.82;100449.56;6176332;23;20091;-85
2023/08/10 06:17:06;;;;;;;4.15;2.30;;;;;;;16.29;76.12;100454.78;6177792;23;20035;-85
2023/08/10 06:19:34;;;;;;;4.32;2.65;;;;;;;16.31;76.10;100442.06;6153369;23;20040;-85
2023/08/10 06:22:01;;;;;;;7.43;3.08;;;;;;;16.33;76.22;100458.81;6177936;23;20028;-85
2023/08/10 06:24:29;;;;;;;3.83;2.85;;;;;;;16.38;76.41;100445.78;6177666;23;20095;-85
2023/08/10 06:26:57;;;;;;;5.82;2.30;;;;;;;16.41;76.63;100458.88;6177963;23;20040;-86
2023/08/10 06:29:23;;;;;;;3.65;2.65;;;;;;;16.42;76.74;100455.19;6153471;23;20020;-86
2023/08/10 06:31:52;;;;;;;3.03;2.28;;;;;;;16.45;76.67;100464.75;6152828;23;20016;-85
2023/08/10 06:34:19;;;;;;;4.07;2.13;;;;;;;16.43;76.77;100464.06;6201979;23;20043;-85
2023/08/10 06:36:45;;;;;;;2.58;2.17;;;;;;;16.46;76.82;100461.94;6127910;23;20028;-86
2023/08/10 06:39:12;;;;;;;5.75;2.80;;;;;;;16.50;77.08;100467.81;6153046;23;20036;-86
2023/08/10 06:41:39;;;;;;;6.63;2.45;;;;;;;16.55;76.82;100467.31;6178364;23;20036;-85
2023/08/10 06:44:06;;;;;;;3.65;2.50;;;;;;;16.58;76.80;100472.38;6153261;23;20396;-85
2023/08/10 06:46:33;;;;;;;4.78;2.30;;;;;;;16.61;76.56;100472.91;6152450;23;20028;-85
2023/08/10 06:49:00;;;;;;;4.90;2.78;;;;;;;16.64;76.45;100477.13;6176776;23;20090;-86
2023/08/10 06:51:27;;;;;;;4.18;2.67;;;;;;;16.66;76.69;100478.63;6153813;23;20028;-86
2023/08/10 06:53:54;;;;;;;3.05;2.35;;;;;;;16.68;76.83;100475.78;6128079;23;20457;-85
2023/08/10 06:56:20;;;;;;;4.50;2.60;;;;;;;16.71;76.69;100472.75;6153137;23;20013;-86
2023/08/10 06:58:47;;;;;;;5.47;2.72;;;;;;;16.76;76.19;100480.34;6127492;23;20374;-85
2023/08/10 07:01:34;;;;;;;4.50;2.67;;;;;;;16.75;76.65;100481.34;6200761;23;20020;-85
2023/08/10 07:04:01;;;;;;;5.55;2.58;;;;;;;16.78;76.47;100481.06;6151907;23;20400;-86
2023/08/10 07:06:28;;;;;;;3.60;2.50;;;;;;;16.80;76.54;100482.56;6202163;23;20104;-86
2023/08/10 07:08:55;;;;;;;5.05;2.60;;;;;;;16.83;76.84;100481.41;6152627;23;20020;-86
2023/08/10 07:11:22;;;;;;;3.97;2.50;;;;;;;16.85;76.94;100476.75;6129046;23;20037;-86
2023/08/10 07:13:49;;;;;;;4.70;2.55;;;;;;;16.91;77.16;100482.28;6201632;23;20024;-86
2023/08/10 07:16:16;;;;;;;5.28;2.65;;;;;;;16.97;77.65;100475.47;6153054;23;20028;-86
2023/08/10 07:18:43;;;;;;;3.70;2.38;;;;;;;16.99;77.44;100469.91;6178287;23;20040;-86
2023/08/10 07:21:10;;;;;;;5.03;2.20;;;;;;;17.03;77.48;100473.97;6151021;23;20020;-86
2023/08/10 07:23:37;;;;;;;5.00;2.80;;;;;;;17.06;77.45;100471.78;6201039;23;20452;-86
2023/08/10 07:26:04;;;;;;;4.88;2.42;;;;;;;17.12;77.26;100462.22;6177411;23;20021;-86
2023/08/10 07:28:31;;;;;;;5.70;2.38;;;;;;;17.16;77.57;100465.44;6153196;23;20054;-86
2023/08/10 07:31:01;;;;;;;2.97;2.30;;;;;;;17.18;77.34;100464.28;6152166;23;20632;-85
2023/08/10 07:33:27;;;;;;;3.80;2.53;;;;;;;17.22;77.76;100473.66;6151545;23;20036;-86
2023/08/10 07:35:54;;;;;;;5.15;2.45;;;;;;;17.25;77.51;100476.06;6202764;23;20017;-87
2023/08/10 07:38:21;;;;;;;4.50;2.40;;;;;;;17.27;77.35;100479.38;6153222;23;20039;-87
2023/08/10 07:40:48;;;;;;;5.95;2.40;;;;;;;17.29;77.46;100480.06;6177042;23;20029;-87
2023/08/10 07:43:15;;;;;;;4.25;2.15;;;;;;;17.34;77.79;100472.38;6152461;23;20025;-89
2023/08/10 07:45:41;;;;;;;3.58;2.65;;;;;;;17.40;78.08;100475.41;6178121;23;20024;-88
2023/08/10 07:48:08;;;;;;;6.35;2.40;;;;;;;17.43;78.34;100472.38;6177182;23;20373;-88
2023/08/10 07:50:35;;;;;;;5.72;2.35;;;;;;;17.49;78.50;100479.78;6128322;23;20028;-88
2023/08/10 07:53:03;;;;;;;5.68;2.30;;;;;;;17.54;78.37;100474.75;6152943;23;20100;-88
2023/08/10 07:55:30;;;;;;;5.15;2.70;;;;;;;17.58;78.50;100468.91;6176843;23;20027;-89
2023/08/10 07:57:57;;;;;;;4.60;3.00;;;;;;;17.62;78.67;100461.34;6151276;23;20033;-88
2023/08/10 08:00:24;;;;;;;5.65;2.60;;;;;;;17.66;78.76;100468.06;6151724;23;20449;-87
2023/08/10 08:02:50;;;;;;;5.82;2.50;;;;;;;17.70;78.79;100471.25;6176683;23;20016;-88
2023/08/10 08:05:18;;;;;;;3.65;2.55;;;;;;;17.73;78.96;100463.72;6176659;23;20349;-88
2023/08/10 08:07:45;;;;;;;6.72;2.55;;;;;;;17.77;79.41;100459.69;6151662;23;20400;-88
2023/08/10 08:10:11;;;;;;;4.88;2.95;;;;;;;17.76;79.01;100468.75;6150960;23;20020;-88
2023/08/10 08:12:38;;;;;;;3.25;2.30;;;;;;;17.76;79.40;100462.56;6178523;23;20037;-88
2023/08/10 08:15:06;;;;;;;5.45;2.50;;;;;;;17.77;79.30;100461.53;6129028;23;20059;-88
2023/08/10 08:18:11;;;;;;;2.33;2.13;;;;;;;17.72;79.62;100470.09;6155283;23;20016;-88
2023/08/10 08:20:38;;;;;;;4.05;2.72;;;;;;;17.81;79.57;100462.91;6201842;23;20505;-88
2023/08/10 08:23:05;;;;;;;2.47;1.90;;;;;;;17.84;80.06;100462.56;6129747;23;20059;-89
2023/08/10 08:25:31;;;;;;;3.97;1.95;;;;;;;17.88;80.68;100465.75;6130060;23;20028;-86
2023/08/10 08:27:58;;;;;;;2.55;2.10;;;;;;;17.89;80.86;100467.44;6177633;23;20032;-89
2023/08/10 08:30:27;;;;;;;3.72;2.20;;;;;;;17.89;80.54;100464.78;6178984;23;20388;-88
2023/08/10 08:32:54;;;;;;;2.15;1.95;;;;;;;17.90;80.30;100451.16;6177744;23;20124;-88
2023/08/10 08:35:21;;;;;;;2.55;2.17;;;;;;;17.91;80.39;100452.84;6129041;23;20051;-89
2023/08/10 08:37:47;;;;;;;2.83;2.20;;;;;;;17.95;80.94;100451.47;6153315;23;20024;-89
2023/08/10 08:40:14;;;;;;;4.57;2.10;;;;;;;18.01;81.11;100444.59;6152851;23;20108;-89
2023/08/10 08:42:41;;;;;;;2.80;2.10;;;;;;;18.08;81.33;100444.75;6203790;23;20044;-90
2023/08/10 08:45:08;;;;;;;3.50;2.28;;;;;;;18.11;81.65;100442.56;6178748;23;20016;-88
2023/08/10 08:47:36;;;;;;;2.38;1.80;;;;;;;18.20;81.38;100441.56;6153629;23;20024;-89
2023/08/10 08:50:03;;;;;;;2.15;1.77;;;;;;;18.21;80.95;100447.75;6152474;23;20051;-87
2023/08/10 08:52:31;;;;;;;4.75;2.25;;;;;;;18.25;80.91;100440.22;6154887;23;20040;-86
2023/08/10 08:54:58;;;;;;;5.80;2.40;;;;;;;18.27;80.77;100433.66;6177783;23;20331;-88
2023/08/10 08:57:24;;;;;;;4.05;2.40;;;;;;;18.30;80.58;100438.69;6154339;23;20082;-89
2023/08/10 08:59:51;;;;;;;3.55;2.63;;;;;;;18.31;79.85;100443.03;6179058;23;20092;-89
2023/08/10 09:02:18;;;;;;;3.88;2.10;;;;;;;18.36;80.33;100439.84;6154028;23;20363;-88
2023/08/10 09:04:48;;;;;;;7.28;2.40;;;;;;;18.37;79.77;100433.47;6154244;23;20322;-89
2023/08/10 09:07:14;;;;;;;2.58;1.90;;;;;;;18.40;79.49;100436.63;6130074;23;20017;-89
2023/08/10 09:09:41;;;;;;;2.42;2.20;;;;;;;18.41;78.93;100438.31;6155320;23;20078;-93
2023/08/10 09:12:33;;;;;;;3.05;2.20;;;;;;;18.37;78.76;100434.31;6129040;23;20452;-89
2023/08/10 09:15:15;;;;;;;3.58;2.33;;;;;;;18.43;78.90;100430.91;6153014;23;20028;-88
2023/08/10 09:17:46;;;;;;;2.38;1.90;;;;;;;18.48;78.97;100429.56;6154320;23;20512;-89
2023/08/10 09:20:20;;;;;;;2.75;1.90;;;;;;;18.52;78.80;100420.13;6154184;23;20024;-90
2023/08/10 09:22:55;;;;;;;2.50;2.00;;;;;;;18.59;78.53;100432.72;6129571;23;20024;-90
2023/08/10 09:25:22;;;;;;;3.67;2.15;;;;;;;18.59;77.90;100421.94;6178936;23;20356;-90
2023/08/10 09:27:50;;;;;;;3.00;1.98;;;;;;;18.62;77.75;100424.31;6154551;23;20939;-89
2023/08/10 09:30:18;;;;;;;2.45;1.73;;;;;;;18.67;77.63;100423.75;6179181;23;20326;-89
2023/08/10 09:32:46;;;;;;;5.22;2.20;;;;;;;18.66;77.27;100424.78;6153278;23;20025;-89
2023/08/10 09:35:17;;;;;;;4.25;2.33;;;;;;;18.63;77.16;100422.47;6178130;23;20436;-90
2023/08/10 09:37:46;;;;;;;6.45;1.90;;;;;;;18.69;77.02;100421.75;6178738;23;20448;-91
2023/08/10 09:40:16;;;;;;;3.63;2.08;;;;;;;18.69;77.24;100410.16;6153056;23;20024;-91
2023/08/10 09:42:43;;;;;;;4.25;2.35;;;;;;;18.73;77.69;100409.63;6153149;23;20059;-89
2023/08/10 09:45:11;;;;;;;3.30;1.67;;;;;;;18.77;78.12;100404.75;6154593;23;20333;-90
2023/08/10 09:47:40;;;;;;;7.10;2.33;;;;;;;18.79;76.02;100400.06;6203531;23;20088;-89
2023/08/10 09:50:17;;;;;;;2.80;2.10;;;;;;;18.76;75.88;100401.25;6177913;23;20020;-89
2023/08/10 09:52:45;;;;;;;2.90;2.10;;;;;;;18.81;75.42;100401.56;6203578;23;20024;-91
2023/08/10 09:55:12;;;;;;;4.97;1.90;;;;;;;18.83;74.28;100398.69;6153743;23;20082;-90
2023/08/10 09:57:44;;;;;;;3.72;2.05;;;;;;;18.90;73.87;100404.19;6155552;23;20027;-90
2023/08/10 10:00:18;;;;;;;1.98;1.80;;;;;;;18.89;73.63;100405.22;6203039;23;20391;-90
2023/08/10 10:02:46;;;;;;;2.35;1.90;;;;;;;18.90;73.49;100402.34;6180184;23;20424;-89
2023/08/10 10:05:22;;;;;;;3.42;1.70;;;;;;;18.91;72.52;100392.44;6178679;23;20016;-89
2023/08/10 10:08:04;;;;;;;2.95;2.10;;;;;;;18.92;71.58;100391.41;6182182;23;20121;-89
2023/08/10 10:10:32;;;;;;;2.30;1.65;;;;;;;18.94;70.78;100397.47;6129529;23;20029;-89
2023/08/10 10:13:00;;;;;;;2.10;1.90;;;;;;;18.94;70.59;100394.78;6129044;23;20036;-88
2023/08/10 10:15:27;;;;;;;2.63;1.50;;;;;;;18.96;70.02;100390.88;6202972;23;20388;-91
2023/08/10 10:17:54;;;;;;;3.78;1.77;;;;;;;18.98;69.71;100394.25;6177872;23;20021;-89
2023/08/10 10:20:21;;;;;;;2.08;1.77;;;;;;;18.99;68.46;100387.84;6153321;23;20024;-90
2023/08/10 10:22:48;;;;;;;3.15;2.00;;;;;;;19.01;68.00;100387.66;6128939;23;20032;-90
2023/08/10 10:25:19;;;;;;;3.80;1.90;;;;;;;19.03;67.39;100388.31;6152305;23;20043;-90
2023/08/10 10:27:47;;;;;;;3.00;1.70;;;;;;;19.02;67.98;100381.25;6129274;23;20024;-90
2023/08/10 10:30:16;;;;;;;3.17;2.00;;;;;;;19.06;66.38;100388.81;6163001;23;20029;-92
2023/08/10 10:32:45;;;;;;;2.03;1.58;;;;;;;19.09;67.06;100384.94;6154470;23;20090;-90
2023/08/10 10:35:31;;;;;;;3.78;1.80;;;;;;;19.05;66.19;100373.66;6177026;23;20775;-90
2023/08/10 10:37:59;;;;;;;2.58;1.70;;;;;;;19.14;66.35;100377.16;6153982;23;20032;-89
2023/08/10 10:40:27;;;;;;;2.08;1.73;;;;;;;19.16;66.69;100374.25;6129732;23;20086;-94
2023/08/10 10:43:11;;;;;;;2.13;1.88;;;;;;;19.11;66.95;100366.75;6155741;23;20032;-93
2023/08/10 10:45:42;;;;;;;2.15;1.77;;;;;;;19.20;67.02;100367.53;6157345;23;20024;-92
2023/08/10 10:48:10;;;;;;;1.88;1.77;;;;;;;19.22;65.59;100358.25;6131148;23;20373;-93
2023/08/10 10:50:37;;;;;;;3.42;2.15;;;;;;;19.23;65.92;100361.78;6131179;23;20028;-93
2023/08/10 10:53:13;;;;;;;3.13;1.88;;;;;;;19.22;65.24;100352.84;6180263;23;20932;-93
2023/08/10 10:55:42;;;;;;;2.45;1.70;;;;;;;19.26;64.89;100356.06;6155397;23;20021;-92
2023/08/10 10:58:13;;;;;;;2.20;1.80;;;;;;;19.26;64.70;100351.50;6131194;23;20072;-91
2023/08/10 11:00:41;;;;;;;4.57;2.25;;;;;;;19.33;64.53;100348.06;6132392;23;20340;-93
2023/08/10 11:03:11;;;;;;;1.80;1.70;;;;;;;19.36;63.60;100345.88;6097586;23;20365;-93
2023/08/10 11:05:38;;;;;;;2.25;2.05;;;;;;;19.38;64.02;100338.44;6117153;23;20095;-93
2023/08/10 11:08:06;;;;;;;3.53;2.13;;;;;;;19.41;64.82;100331.84;6155201;23;20444;-91
2023/08/10 11:10:35;;;;;;;3.55;2.20;;;;;;;19.44;63.58;100337.72;6155953;23;20032;-93
2023/08/10 11:13:05;;;;;;;2.53;2.33;;;;;;;19.44;63.88;100331.50;6155412;23;20024;-92
2023/08/10 11:15:33;;;;;;;3.90;2.30;;;;;;;19.47;64.33;100326.59;6131071;23;20028;-92
2023/08/10 11:18:00;;;;;;;2.22;2.03;;;;;;;19.49;64.56;100324.56;6130594;23;20346;-93
2023/08/10 11:20:27;;;;;;;3.65;2.10;;;;;;;19.53;63.57;100322.31;6131370;23;20428;-92
2023/08/10 11:22:54;;;;;;;2.50;2.08;;;;;;;19.56;63.85;100318.41;6131498;23;20020;-92
2023/08/10 11:25:26;;;;;;;1.95;1.70;;;;;;;19.58;62.38;100319.91;6155577;23;20028;-91
2023/08/10 11:27:53;;;;;;;2.58;1.70;;;;;;;19.60;62.12;100315.19;6180104;23;20024;-91